sensor_id;sensor_type;location;lat;lon;timestamp;P1;durP1;ratioP1;P2;durP2;ratioP2
74821;SDS011;63353;48.702;8.884;2023-06-14T00:01:51;12.40;;;11.30;;
74821;SDS011;63353;48.702;8.884;2023-06-14T00:04:29;12.13;;;11.13;;
74821;SDS011;63353;48.702;8.884;2023-06-14T00:06:55;12.10;;;11.00;;
74821;SDS011;63353;48.702;8.884;2023-06-14T00:09:21;12.13;;;11.03;;
74821;SDS011;63353;48.702;8.884;2023-06-14T00:11:48;11.93;;;11.00;;
74821;SDS011;63353;48.702;8.884;2023-06-14T00:14:16;13.37;;;12.07;;
74821;SDS011;63353;48.702;8.884;2023-06-14T00:16:45;12.73;;;11.53;;
74821;SDS011;63353;48.702;8.884;2023-06-14T00:19:20;13.50;;;12.40;;
74821;SDS011;63353;48.702;8.884;2023-06-14T00:21:49;13.57;;;12.37;;
74821;SDS011;63353;48.702;8.884;2023-06-14T00:24:15;13.77;;;12.67;;
74821;SDS011;63353;48.702;8.884;2023-06-14T00:26:40;13.67;;;12.57;;
74821;SDS011;63353;48.702;8.884;2023-06-14T00:29:06;13.60;;;12.50;;
74821;SDS011;63353;48.702;8.884;2023-06-14T00:31:32;12.97;;;11.87;;
74821;SDS011;63353;48.702;8.884;2023-06-14T00:34:00;13.53;;;12.40;;
74821;SDS011;63353;48.702;8.884;2023-06-14T00:36:26;13.50;;;12.43;;
74821;SDS011;63353;48.702;8.884;2023-06-14T00:38:55;13.37;;;12.33;;
74821;SDS011;63353;48.702;8.884;2023-06-14T00:41:20;13.93;;;12.93;;
74821;SDS011;63353;48.702;8.884;2023-06-14T00:43:46;14.27;;;13.10;;
74821;SDS011;63353;48.702;8.884;2023-06-14T00:46:11;14.70;;;13.60;;
74821;SDS011;63353;48.702;8.884;2023-06-14T00:48:38;13.57;;;12.57;;
74821;SDS011;63353;48.702;8.884;2023-06-14T00:51:05;14.77;;;13.50;;
74821;SDS011;63353;48.702;8.884;2023-06-14T00:53:31;13.63;;;12.50;;
74821;SDS011;63353;48.702;8.884;2023-06-14T00:56:00;14.03;;;12.97;;
74821;SDS011;63353;48.702;8.884;2023-06-14T00:58:29;14.53;;;13.00;;
74821;SDS011;63353;48.702;8.884;2023-06-14T01:01:01;14.60;;;13.30;;
74821;SDS011;63353;48.702;8.884;2023-06-14T01:03:27;16.00;;;14.50;;
74821;SDS011;63353;48.702;8.884;2023-06-14T01:05:56;14.87;;;13.67;;
74821;SDS011;63353;48.702;8.884;2023-06-14T01:08:40;14.80;;;13.70;;
74821;SDS011;63353;48.702;8.884;2023-06-14T01:11:22;14.23;;;13.07;;
74821;SDS011;63353;48.702;8.884;2023-06-14T01:13:56;13.50;;;12.40;;
74821;SDS011;63353;48.702;8.884;2023-06-14T01:16:25;13.77;;;12.67;;
74821;SDS011;63353;48.702;8.884;2023-06-14T01:18:54;14.83;;;13.67;;
74821;SDS011;63353;48.702;8.884;2023-06-14T01:21:24;15.10;;;14.00;;
74821;SDS011;63353;48.702;8.884;2023-06-14T01:23:51;15.73;;;14.33;;
74821;SDS011;63353;48.702;8.884;2023-06-14T01:26:21;14.13;;;12.83;;
74821;SDS011;63353;48.702;8.884;2023-06-14T01:28:47;14.37;;;13.27;;
74821;SDS011;63353;48.702;8.884;2023-06-14T01:31:23;13.70;;;12.50;;
74821;SDS011;63353;48.702;8.884;2023-06-14T01:33:50;13.97;;;12.70;;
74821;SDS011;63353;48.702;8.884;2023-06-14T01:36:17;13.73;;;12.53;;
74821;SDS011;63353;48.702;8.884;2023-06-14T01:38:45;13.87;;;12.60;;
74821;SDS011;63353;48.702;8.884;2023-06-14T01:41:11;14.53;;;13.37;;
74821;SDS011;63353;48.702;8.884;2023-06-14T01:43:44;13.77;;;12.67;;
74821;SDS011;63353;48.702;8.884;2023-06-14T01:46:11;14.30;;;13.10;;
74821;SDS011;63353;48.702;8.884;2023-06-14T01:48:39;14.00;;;12.83;;
74821;SDS011;63353;48.702;8.884;2023-06-14T01:51:05;13.80;;;12.70;;
74821;SDS011;63353;48.702;8.884;2023-06-14T01:53:31;14.17;;;12.97;;
74821;SDS011;63353;48.702;8.884;2023-06-14T01:56:00;13.73;;;12.23;;
74821;SDS011;63353;48.702;8.884;2023-06-14T01:58:26;14.00;;;12.80;;
74821;SDS011;63353;48.702;8.884;2023-06-14T02:00:52;14.30;;;13.10;;
74821;SDS011;63353;48.702;8.884;2023-06-14T02:03:20;13.97;;;12.77;;
74821;SDS011;63353;48.702;8.884;2023-06-14T02:05:46;14.70;;;13.60;;
74821;SDS011;63353;48.702;8.884;2023-06-14T02:08:12;13.97;;;12.77;;
74821;SDS011;63353;48.702;8.884;2023-06-14T02:10:46;13.90;;;12.70;;
74821;SDS011;63353;48.702;8.884;2023-06-14T02:13:15;13.77;;;12.57;;
74821;SDS011;63353;48.702;8.884;2023-06-14T02:15:44;13.10;;;12.00;;
74821;SDS011;63353;48.702;8.884;2023-06-14T02:18:13;14.33;;;12.90;;
74821;SDS011;63353;48.702;8.884;2023-06-14T02:20:41;15.73;;;13.10;;
74821;SDS011;63353;48.702;8.884;2023-06-14T02:23:16;13.27;;;12.10;;
74821;SDS011;63353;48.702;8.884;2023-06-14T02:25:45;13.83;;;12.63;;
74821;SDS011;63353;48.702;8.884;2023-06-14T02:28:19;13.03;;;12.03;;
74821;SDS011;63353;48.702;8.884;2023-06-14T02:30:45;13.93;;;12.63;;
74821;SDS011;63353;48.702;8.884;2023-06-14T02:33:11;13.73;;;12.47;;
74821;SDS011;63353;48.702;8.884;2023-06-14T02:35:38;13.67;;;12.23;;
74821;SDS011;63353;48.702;8.884;2023-06-14T02:38:03;14.37;;;13.07;;
74821;SDS011;63353;48.702;8.884;2023-06-14T02:40:29;13.50;;;12.30;;
74821;SDS011;63353;48.702;8.884;2023-06-14T02:42:58;14.43;;;13.23;;
74821;SDS011;63353;48.702;8.884;2023-06-14T02:45:23;13.80;;;12.70;;
74821;SDS011;63353;48.702;8.884;2023-06-14T02:48:02;14.20;;;13.00;;
74821;SDS011;63353;48.702;8.884;2023-06-14T02:50:27;13.53;;;12.47;;
74821;SDS011;63353;48.702;8.884;2023-06-14T02:52:57;13.70;;;12.47;;
74821;SDS011;63353;48.702;8.884;2023-06-14T02:55:29;14.30;;;12.83;;
74821;SDS011;63353;48.702;8.884;2023-06-14T02:57:55;13.90;;;12.60;;
74821;SDS011;63353;48.702;8.884;2023-06-14T03:00:23;14.23;;;13.00;;
74821;SDS011;63353;48.702;8.884;2023-06-14T03:02:58;13.87;;;12.67;;
74821;SDS011;63353;48.702;8.884;2023-06-14T03:05:26;13.00;;;11.97;;
74821;SDS011;63353;48.702;8.884;2023-06-14T03:08:01;13.90;;;12.63;;
74821;SDS011;63353;48.702;8.884;2023-06-14T03:10:30;14.13;;;12.87;;
74821;SDS011;63353;48.702;8.884;2023-06-14T03:13:02;13.90;;;12.63;;
74821;SDS011;63353;48.702;8.884;2023-06-14T03:15:28;13.80;;;12.60;;
74821;SDS011;63353;48.702;8.884;2023-06-14T03:17:54;13.80;;;12.43;;
74821;SDS011;63353;48.702;8.884;2023-06-14T03:20:19;13.90;;;11.73;;
74821;SDS011;63353;48.702;8.884;2023-06-14T03:22:45;13.87;;;12.47;;
74821;SDS011;63353;48.702;8.884;2023-06-14T03:25:14;13.17;;;11.97;;
74821;SDS011;63353;48.702;8.884;2023-06-14T03:27:43;13.17;;;11.87;;
74821;SDS011;63353;48.702;8.884;2023-06-14T03:30:23;12.80;;;11.67;;
74821;SDS011;63353;48.702;8.884;2023-06-14T03:32:52;15.33;;;12.57;;
74821;SDS011;63353;48.702;8.884;2023-06-14T03:35:20;15.47;;;11.87;;
74821;SDS011;63353;48.702;8.884;2023-06-14T03:37:46;13.17;;;11.97;;
74821;SDS011;63353;48.702;8.884;2023-06-14T03:40:15;13.73;;;12.27;;
74821;SDS011;63353;48.702;8.884;2023-06-14T03:42:49;13.13;;;12.03;;
74821;SDS011;63353;48.702;8.884;2023-06-14T03:45:15;13.03;;;11.80;;
74821;SDS011;63353;48.702;8.884;2023-06-14T03:47:43;13.50;;;12.23;;
74821;SDS011;63353;48.702;8.884;2023-06-14T03:50:12;13.20;;;11.90;;
74821;SDS011;63353;48.702;8.884;2023-06-14T03:52:38;14.80;;;12.87;;
74821;SDS011;63353;48.702;8.884;2023-06-14T03:55:07;13.60;;;12.33;;
74821;SDS011;63353;48.702;8.884;2023-06-14T03:57:33;13.43;;;12.07;;
74821;SDS011;63353;48.702;8.884;2023-06-14T03:59:58;13.03;;;11.83;;
74821;SDS011;63353;48.702;8.884;2023-06-14T04:02:24;14.77;;;12.23;;
74821;SDS011;63353;48.702;8.884;2023-06-14T04:05:05;13.63;;;11.93;;
74821;SDS011;63353;48.702;8.884;2023-06-14T04:07:41;13.53;;;12.33;;
74821;SDS011;63353;48.702;8.884;2023-06-14T04:10:09;12.60;;;11.60;;
74821;SDS011;63353;48.702;8.884;2023-06-14T04:12:36;13.17;;;11.97;;
74821;SDS011;63353;48.702;8.884;2023-06-14T04:15:05;13.03;;;11.83;;
74821;SDS011;63353;48.702;8.884;2023-06-14T04:17:31;13.47;;;11.93;;
74821;SDS011;63353;48.702;8.884;2023-06-14T04:20:00;13.80;;;12.33;;
74821;SDS011;63353;48.702;8.884;2023-06-14T04:22:28;13.40;;;12.10;;
74821;SDS011;63353;48.702;8.884;2023-06-14T04:24:55;13.80;;;12.70;;
74821;SDS011;63353;48.702;8.884;2023-06-14T04:27:25;13.77;;;12.33;;
74821;SDS011;63353;48.702;8.884;2023-06-14T04:29:52;15.37;;;12.83;;
74821;SDS011;63353;48.702;8.884;2023-06-14T04:32:29;13.40;;;12.13;;
74821;SDS011;63353;48.702;8.884;2023-06-14T04:34:58;13.30;;;12.13;;
74821;SDS011;63353;48.702;8.884;2023-06-14T04:37:27;14.33;;;13.13;;
74821;SDS011;63353;48.702;8.884;2023-06-14T04:39:55;12.97;;;11.67;;
74821;SDS011;63353;48.702;8.884;2023-06-14T04:42:22;13.20;;;11.93;;
74821;SDS011;63353;48.702;8.884;2023-06-14T04:44:50;13.13;;;11.80;;
74821;SDS011;63353;48.702;8.884;2023-06-14T04:47:16;12.63;;;11.23;;
74821;SDS011;63353;48.702;8.884;2023-06-14T04:49:42;13.50;;;12.20;;
74821;SDS011;63353;48.702;8.884;2023-06-14T04:52:10;13.40;;;12.07;;
74821;SDS011;63353;48.702;8.884;2023-06-14T04:54:38;13.30;;;12.07;;
74821;SDS011;63353;48.702;8.884;2023-06-14T04:57:10;13.63;;;12.53;;
74821;SDS011;63353;48.702;8.884;2023-06-14T04:59:44;13.27;;;12.20;;
74821;SDS011;63353;48.702;8.884;2023-06-14T05:02:11;14.57;;;12.67;;
74821;SDS011;63353;48.702;8.884;2023-06-14T05:04:36;13.53;;;12.23;;
74821;SDS011;63353;48.702;8.884;2023-06-14T05:07:07;14.63;;;13.20;;
74821;SDS011;63353;48.702;8.884;2023-06-14T05:09:34;13.20;;;12.00;;
74821;SDS011;63353;48.702;8.884;2023-06-14T05:12:00;13.57;;;12.27;;
74821;SDS011;63353;48.702;8.884;2023-06-14T05:14:26;12.87;;;11.77;;
74821;SDS011;63353;48.702;8.884;2023-06-14T05:16:55;12.60;;;11.50;;
74821;SDS011;63353;48.702;8.884;2023-06-14T05:19:29;13.00;;;11.97;;
74821;SDS011;63353;48.702;8.884;2023-06-14T05:22:01;12.13;;;11.13;;
74821;SDS011;63353;48.702;8.884;2023-06-14T05:24:28;13.20;;;11.80;;
74821;SDS011;63353;48.702;8.884;2023-06-14T05:26:55;12.33;;;11.33;;
74821;SDS011;63353;48.702;8.884;2023-06-14T05:29:24;13.43;;;12.03;;
74821;SDS011;63353;48.702;8.884;2023-06-14T05:31:50;12.87;;;11.77;;
74821;SDS011;63353;48.702;8.884;2023-06-14T05:34:22;13.27;;;11.97;;
74821;SDS011;63353;48.702;8.884;2023-06-14T05:36:51;12.77;;;11.77;;
74821;SDS011;63353;48.702;8.884;2023-06-14T05:39:16;12.83;;;11.73;;
74821;SDS011;63353;48.702;8.884;2023-06-14T05:41:42;13.43;;;12.33;;
74821;SDS011;63353;48.702;8.884;2023-06-14T05:44:07;13.27;;;12.17;;
74821;SDS011;63353;48.702;8.884;2023-06-14T05:46:34;14.17;;;13.03;;
74821;SDS011;63353;48.702;8.884;2023-06-14T05:49:00;13.90;;;12.80;;
74821;SDS011;63353;48.702;8.884;2023-06-14T05:51:28;14.03;;;12.70;;
74821;SDS011;63353;48.702;8.884;2023-06-14T05:53:54;13.43;;;12.33;;
74821;SDS011;63353;48.702;8.884;2023-06-14T05:56:21;14.23;;;12.77;;
74821;SDS011;63353;48.702;8.884;2023-06-14T05:58:53;13.63;;;12.43;;
74821;SDS011;63353;48.702;8.884;2023-06-14T06:01:22;13.23;;;12.13;;
74821;SDS011;63353;48.702;8.884;2023-06-14T06:03:48;13.57;;;12.37;;
74821;SDS011;63353;48.702;8.884;2023-06-14T06:06:16;13.37;;;12.30;;
74821;SDS011;63353;48.702;8.884;2023-06-14T06:08:45;12.37;;;11.17;;
74821;SDS011;63353;48.702;8.884;2023-06-14T06:11:17;12.73;;;11.50;;
74821;SDS011;63353;48.702;8.884;2023-06-14T06:13:58;12.60;;;11.60;;
74821;SDS011;63353;48.702;8.884;2023-06-14T06:16:24;12.80;;;11.50;;
74821;SDS011;63353;48.702;8.884;2023-06-14T06:18:52;12.03;;;11.03;;
74821;SDS011;63353;48.702;8.884;2023-06-14T06:21:24;13.00;;;11.70;;
74821;SDS011;63353;48.702;8.884;2023-06-14T06:23:50;12.00;;;11.00;;
74821;SDS011;63353;48.702;8.884;2023-06-14T06:26:21;12.33;;;11.23;;
74821;SDS011;63353;48.702;8.884;2023-06-14T06:28:53;12.50;;;11.40;;
74821;SDS011;63353;48.702;8.884;2023-06-14T06:31:22;11.30;;;10.30;;
74821;SDS011;63353;48.702;8.884;2023-06-14T06:33:48;11.83;;;10.63;;
74821;SDS011;63353;48.702;8.884;2023-06-14T06:36:16;12.27;;;11.07;;
74821;SDS011;63353;48.702;8.884;2023-06-14T06:38:45;12.23;;;11.23;;
74821;SDS011;63353;48.702;8.884;2023-06-14T06:41:11;13.70;;;12.47;;
74821;SDS011;63353;48.702;8.884;2023-06-14T06:43:36;14.63;;;13.37;;
74821;SDS011;63353;48.702;8.884;2023-06-14T06:46:08;14.50;;;13.40;;
74821;SDS011;63353;48.702;8.884;2023-06-14T06:48:39;13.10;;;12.00;;
74821;SDS011;63353;48.702;8.884;2023-06-14T06:51:08;13.73;;;12.53;;
74821;SDS011;63353;48.702;8.884;2023-06-14T06:53:37;12.67;;;11.77;;
74821;SDS011;63353;48.702;8.884;2023-06-14T06:56:06;13.70;;;12.60;;
74821;SDS011;63353;48.702;8.884;2023-06-14T06:58:40;12.87;;;11.73;;
74821;SDS011;63353;48.702;8.884;2023-06-14T07:01:12;13.43;;;12.30;;
74821;SDS011;63353;48.702;8.884;2023-06-14T07:03:38;12.37;;;11.37;;
74821;SDS011;63353;48.702;8.884;2023-06-14T07:06:06;12.77;;;11.70;;
74821;SDS011;63353;48.702;8.884;2023-06-14T07:08:35;13.40;;;12.20;;
74821;SDS011;63353;48.702;8.884;2023-06-14T07:11:03;12.50;;;11.20;;
74821;SDS011;63353;48.702;8.884;2023-06-14T07:13:30;12.23;;;11.13;;
74821;SDS011;63353;48.702;8.884;2023-06-14T07:15:56;11.70;;;10.60;;
74821;SDS011;63353;48.702;8.884;2023-06-14T07:18:23;11.53;;;10.47;;
74821;SDS011;63353;48.702;8.884;2023-06-14T07:21:10;11.27;;;10.33;;
74821;SDS011;63353;48.702;8.884;2023-06-14T07:24:11;12.03;;;10.43;;
74821;SDS011;63353;48.702;8.884;2023-06-14T07:26:40;11.67;;;10.43;;
74821;SDS011;63353;48.702;8.884;2023-06-14T07:29:06;11.97;;;10.97;;
74821;SDS011;63353;48.702;8.884;2023-06-14T07:31:31;10.70;;;9.80;;
74821;SDS011;63353;48.702;8.884;2023-06-14T07:33:57;10.90;;;10.00;;
74821;SDS011;63353;48.702;8.884;2023-06-14T07:36:22;10.30;;;9.50;;
74821;SDS011;63353;48.702;8.884;2023-06-14T07:38:48;10.73;;;9.73;;
74821;SDS011;63353;48.702;8.884;2023-06-14T07:41:14;11.07;;;9.97;;
74821;SDS011;63353;48.702;8.884;2023-06-14T07:43:41;11.20;;;10.27;;
74821;SDS011;63353;48.702;8.884;2023-06-14T07:46:12;11.50;;;9.60;;
74821;SDS011;63353;48.702;8.884;2023-06-14T07:48:41;10.87;;;10.00;;
74821;SDS011;63353;48.702;8.884;2023-06-14T07:51:10;11.40;;;10.50;;
74821;SDS011;63353;48.702;8.884;2023-06-14T07:53:35;11.23;;;10.23;;
74821;SDS011;63353;48.702;8.884;2023-06-14T07:56:04;11.40;;;10.10;;
74821;SDS011;63353;48.702;8.884;2023-06-14T07:58:30;11.00;;;10.07;;
74821;SDS011;63353;48.702;8.884;2023-06-14T08:00:55;11.13;;;9.90;;
74821;SDS011;63353;48.702;8.884;2023-06-14T08:03:24;11.53;;;10.43;;
74821;SDS011;63353;48.702;8.884;2023-06-14T08:05:52;13.47;;;11.67;;
74821;SDS011;63353;48.702;8.884;2023-06-14T08:08:24;11.23;;;10.23;;
74821;SDS011;63353;48.702;8.884;2023-06-14T08:10:50;11.50;;;10.60;;
74821;SDS011;63353;48.702;8.884;2023-06-14T08:13:21;11.47;;;10.13;;
74821;SDS011;63353;48.702;8.884;2023-06-14T08:15:50;11.50;;;10.50;;
74821;SDS011;63353;48.702;8.884;2023-06-14T08:18:25;12.00;;;10.97;;
74821;SDS011;63353;48.702;8.884;2023-06-14T08:20:55;11.57;;;10.37;;
74821;SDS011;63353;48.702;8.884;2023-06-14T08:23:22;11.70;;;10.70;;
74821;SDS011;63353;48.702;8.884;2023-06-14T08:25:48;12.30;;;11.10;;
74821;SDS011;63353;48.702;8.884;2023-06-14T08:28:17;12.63;;;11.60;;
74821;SDS011;63353;48.702;8.884;2023-06-14T08:30:48;11.37;;;10.57;;
74821;SDS011;63353;48.702;8.884;2023-06-14T08:33:17;11.20;;;10.30;;
74821;SDS011;63353;48.702;8.884;2023-06-14T08:35:43;12.10;;;11.00;;
74821;SDS011;63353;48.702;8.884;2023-06-14T08:38:11;11.53;;;10.53;;
74821;SDS011;63353;48.702;8.884;2023-06-14T08:40:37;11.47;;;10.50;;
74821;SDS011;63353;48.702;8.884;2023-06-14T08:43:03;11.63;;;10.50;;
74821;SDS011;63353;48.702;8.884;2023-06-14T08:45:32;12.10;;;10.97;;
74821;SDS011;63353;48.702;8.884;2023-06-14T08:47:58;12.33;;;10.83;;
74821;SDS011;63353;48.702;8.884;2023-06-14T08:50:27;12.07;;;11.03;;
74821;SDS011;63353;48.702;8.884;2023-06-14T08:53:02;12.63;;;11.63;;
74821;SDS011;63353;48.702;8.884;2023-06-14T08:55:28;12.13;;;11.13;;
74821;SDS011;63353;48.702;8.884;2023-06-14T08:58:01;11.97;;;10.73;;
74821;SDS011;63353;48.702;8.884;2023-06-14T09:00:28;11.37;;;10.50;;
74821;SDS011;63353;48.702;8.884;2023-06-14T09:02:56;11.33;;;10.40;;
74821;SDS011;63353;48.702;8.884;2023-06-14T09:05:32;12.33;;;11.20;;
74821;SDS011;63353;48.702;8.884;2023-06-14T09:08:01;12.73;;;11.67;;
74821;SDS011;63353;48.702;8.884;2023-06-14T09:10:27;12.40;;;11.48;;
74821;SDS011;63353;48.702;8.884;2023-06-14T09:12:58;12.90;;;11.60;;
74821;SDS011;63353;48.702;8.884;2023-06-14T09:15:26;12.50;;;11.43;;
74821;SDS011;63353;48.702;8.884;2023-06-14T09:18:01;12.70;;;11.50;;
74821;SDS011;63353;48.702;8.884;2023-06-14T09:20:33;11.98;;;10.95;;
74821;SDS011;63353;48.702;8.884;2023-06-14T09:22:58;12.82;;;11.60;;
74821;SDS011;63353;48.702;8.884;2023-06-14T09:25:27;11.55;;;10.70;;
74821;SDS011;63353;48.702;8.884;2023-06-14T09:28:06;12.30;;;11.35;;
74821;SDS011;63353;48.702;8.884;2023-06-14T09:30:33;12.85;;;11.73;;
74821;SDS011;63353;48.702;8.884;2023-06-14T09:33:02;13.07;;;11.95;;
74821;SDS011;63353;48.702;8.884;2023-06-14T09:35:27;11.90;;;10.90;;
74821;SDS011;63353;48.702;8.884;2023-06-14T09:37:58;11.25;;;10.40;;
74821;SDS011;63353;48.702;8.884;2023-06-14T09:40:24;12.63;;;11.57;;
74821;SDS011;63353;48.702;8.884;2023-06-14T09:42:53;12.82;;;11.80;;
74821;SDS011;63353;48.702;8.884;2023-06-14T09:45:22;12.38;;;11.27;;
74821;SDS011;63353;48.702;8.884;2023-06-14T09:47:51;12.05;;;10.82;;
74821;SDS011;63353;48.702;8.884;2023-06-14T09:50:20;12.07;;;10.98;;
74821;SDS011;63353;48.702;8.884;2023-06-14T09:52:46;11.57;;;10.65;;
74821;SDS011;63353;48.702;8.884;2023-06-14T09:55:14;11.25;;;10.27;;
74821;SDS011;63353;48.702;8.884;2023-06-14T09:57:43;10.70;;;9.90;;
74821;SDS011;63353;48.702;8.884;2023-06-14T10:00:15;10.90;;;9.95;;
74821;SDS011;63353;48.702;8.884;2023-06-14T10:02:53;10.35;;;9.48;;
74821;SDS011;63353;48.702;8.884;2023-06-14T10:05:26;11.20;;;10.13;;
74821;SDS011;63353;48.702;8.884;2023-06-14T10:07:55;11.73;;;10.52;;
74821;SDS011;63353;48.702;8.884;2023-06-14T10:10:31;11.48;;;10.57;;
74821;SDS011;63353;48.702;8.884;2023-06-14T10:13:03;10.15;;;9.43;;
74821;SDS011;63353;48.702;8.884;2023-06-14T10:15:37;10.48;;;9.60;;
74821;SDS011;63353;48.702;8.884;2023-06-14T10:23:37;9.90;;;9.07;;
74821;SDS011;63353;48.702;8.884;2023-06-14T10:26:07;9.35;;;8.65;;
74821;SDS011;63353;48.702;8.884;2023-06-14T10:28:34;10.73;;;9.85;;
74821;SDS011;63353;48.702;8.884;2023-06-14T10:31:06;9.30;;;8.50;;
74821;SDS011;63353;48.702;8.884;2023-06-14T10:33:39;9.00;;;8.30;;
74821;SDS011;63353;48.702;8.884;2023-06-14T10:42:01;10.10;;;9.23;;
74821;SDS011;63353;48.702;8.884;2023-06-14T10:50:03;10.05;;;9.23;;
74821;SDS011;63353;48.702;8.884;2023-06-14T10:52:34;10.55;;;9.55;;
74821;SDS011;63353;48.702;8.884;2023-06-14T10:55:09;11.45;;;10.65;;
74821;SDS011;63353;48.702;8.884;2023-06-14T10:57:37;11.02;;;10.02;;
74821;SDS011;63353;48.702;8.884;2023-06-14T11:00:05;11.52;;;10.55;;
74821;SDS011;63353;48.702;8.884;2023-06-14T11:11:41;10.23;;;9.52;;
74821;SDS011;63353;48.702;8.884;2023-06-14T11:14:08;9.52;;;8.63;;
74821;SDS011;63353;48.702;8.884;2023-06-14T11:16:35;11.25;;;10.45;;
74821;SDS011;63353;48.702;8.884;2023-06-14T11:19:03;10.73;;;10.02;;
74821;SDS011;63353;48.702;8.884;2023-06-14T11:21:28;11.02;;;9.95;;
74821;SDS011;63353;48.702;8.884;2023-06-14T11:23:56;11.93;;;11.05;;
74821;SDS011;63353;48.702;8.884;2023-06-14T11:26:29;10.90;;;10.18;;
74821;SDS011;63353;48.702;8.884;2023-06-14T11:29:00;12.60;;;10.20;;
74821;SDS011;63353;48.702;8.884;2023-06-14T11:31:29;10.95;;;10.07;;
74821;SDS011;63353;48.702;8.884;2023-06-14T11:33:58;10.77;;;9.82;;
74821;SDS011;63353;48.702;8.884;2023-06-14T11:36:31;11.15;;;10.27;;
74821;SDS011;63353;48.702;8.884;2023-06-14T11:39:01;9.32;;;8.63;;
74821;SDS011;63353;48.702;8.884;2023-06-14T11:41:40;10.23;;;9.40;;
74821;SDS011;63353;48.702;8.884;2023-06-14T11:44:10;9.80;;;9.05;;
74821;SDS011;63353;48.702;8.884;2023-06-14T11:46:36;10.30;;;9.60;;
74821;SDS011;63353;48.702;8.884;2023-06-14T11:49:03;10.75;;;9.85;;
74821;SDS011;63353;48.702;8.884;2023-06-14T11:51:32;10.45;;;9.75;;
74821;SDS011;63353;48.702;8.884;2023-06-14T11:54:02;11.90;;;10.90;;
74821;SDS011;63353;48.702;8.884;2023-06-14T11:56:29;9.75;;;9.05;;
74821;SDS011;63353;48.702;8.884;2023-06-14T11:58:56;10.02;;;9.07;;
74821;SDS011;63353;48.702;8.884;2023-06-14T12:01:22;10.57;;;9.70;;
74821;SDS011;63353;48.702;8.884;2023-06-14T12:03:52;9.50;;;8.80;;
74821;SDS011;63353;48.702;8.884;2023-06-14T12:06:26;10.07;;;9.48;;
74821;SDS011;63353;48.702;8.884;2023-06-14T12:09:07;10.13;;;9.43;;
74821;SDS011;63353;48.702;8.884;2023-06-14T12:11:38;10.50;;;9.80;;
74821;SDS011;63353;48.702;8.884;2023-06-14T12:14:04;10.02;;;9.20;;
74821;SDS011;63353;48.702;8.884;2023-06-14T12:16:31;10.40;;;9.68;;
74821;SDS011;63353;48.702;8.884;2023-06-14T12:19:17;10.38;;;9.52;;
74821;SDS011;63353;48.702;8.884;2023-06-14T12:21:46;9.90;;;9.13;;
74821;SDS011;63353;48.702;8.884;2023-06-14T12:24:17;10.07;;;9.18;;
74821;SDS011;63353;48.702;8.884;2023-06-14T12:26:58;10.32;;;9.35;;
74821;SDS011;63353;48.702;8.884;2023-06-14T12:29:33;10.23;;;9.43;;
74821;SDS011;63353;48.702;8.884;2023-06-14T12:32:01;9.57;;;8.75;;
74821;SDS011;63353;48.702;8.884;2023-06-14T12:34:33;9.45;;;8.75;;
74821;SDS011;63353;48.702;8.884;2023-06-14T12:36:59;10.23;;;9.52;;
74821;SDS011;63353;48.702;8.884;2023-06-14T12:39:27;9.65;;;8.95;;
74821;SDS011;63353;48.702;8.884;2023-06-14T12:41:57;9.07;;;8.48;;
74821;SDS011;63353;48.702;8.884;2023-06-14T12:44:22;9.27;;;8.52;;
74821;SDS011;63353;48.702;8.884;2023-06-14T12:46:51;9.80;;;9.10;;
74821;SDS011;63353;48.702;8.884;2023-06-14T12:49:22;9.60;;;8.90;;
74821;SDS011;63353;48.702;8.884;2023-06-14T12:51:54;10.20;;;8.82;;
74821;SDS011;63353;48.702;8.884;2023-06-14T12:54:19;9.68;;;8.93;;
74821;SDS011;63353;48.702;8.884;2023-06-14T12:56:47;9.55;;;8.85;;
74821;SDS011;63353;48.702;8.884;2023-06-14T12:59:19;9.60;;;8.95;;
74821;SDS011;63353;48.702;8.884;2023-06-14T13:01:44;9.60;;;8.77;;
74821;SDS011;63353;48.702;8.884;2023-06-14T13:04:10;10.18;;;9.48;;
74821;SDS011;63353;48.702;8.884;2023-06-14T13:06:41;9.80;;;9.02;;
74821;SDS011;63353;48.702;8.884;2023-06-14T13:09:07;9.38;;;8.77;;
74821;SDS011;63353;48.702;8.884;2023-06-14T13:11:39;9.52;;;8.93;;
74821;SDS011;63353;48.702;8.884;2023-06-14T13:14:04;8.93;;;8.35;;
74821;SDS011;63353;48.702;8.884;2023-06-14T13:16:30;9.80;;;9.05;;
74821;SDS011;63353;48.702;8.884;2023-06-14T13:19:03;9.02;;;8.32;;
74821;SDS011;63353;48.702;8.884;2023-06-14T13:21:29;9.65;;;8.95;;
74821;SDS011;63353;48.702;8.884;2023-06-14T13:24:04;9.60;;;8.98;;
74821;SDS011;63353;48.702;8.884;2023-06-14T13:26:30;9.40;;;8.80;;
74821;SDS011;63353;48.702;8.884;2023-06-14T13:28:59;9.73;;;9.00;;
74821;SDS011;63353;48.702;8.884;2023-06-14T13:31:24;9.80;;;9.10;;
74821;SDS011;63353;48.702;8.884;2023-06-14T13:33:50;10.07;;;9.23;;
74821;SDS011;63353;48.702;8.884;2023-06-14T13:36:16;9.68;;;8.80;;
74821;SDS011;63353;48.702;8.884;2023-06-14T13:38:41;9.25;;;8.55;;
74821;SDS011;63353;48.702;8.884;2023-06-14T13:41:07;10.40;;;9.60;;
74821;SDS011;63353;48.702;8.884;2023-06-14T13:43:35;9.60;;;8.90;;
74821;SDS011;63353;48.702;8.884;2023-06-14T13:46:01;10.35;;;9.70;;
74821;SDS011;63353;48.702;8.884;2023-06-14T13:48:27;10.15;;;9.45;;
74821;SDS011;63353;48.702;8.884;2023-06-14T13:50:52;10.38;;;9.60;;
74821;SDS011;63353;48.702;8.884;2023-06-14T13:53:21;10.15;;;9.40;;
74821;SDS011;63353;48.702;8.884;2023-06-14T13:55:47;10.25;;;9.45;;
74821;SDS011;63353;48.702;8.884;2023-06-14T13:58:12;10.32;;;9.52;;
74821;SDS011;63353;48.702;8.884;2023-06-14T14:00:40;9.30;;;8.63;;
74821;SDS011;63353;48.702;8.884;2023-06-14T14:03:09;10.55;;;9.75;;
74821;SDS011;63353;48.702;8.884;2023-06-14T14:05:37;10.00;;;9.20;;
74821;SDS011;63353;48.702;8.884;2023-06-14T14:08:06;9.40;;;8.60;;
74821;SDS011;63353;48.702;8.884;2023-06-14T14:10:32;9.80;;;9.13;;
74821;SDS011;63353;48.702;8.884;2023-06-14T14:12:58;8.75;;;8.07;;
74821;SDS011;63353;48.702;8.884;2023-06-14T14:15:24;9.18;;;8.48;;
74821;SDS011;63353;48.702;8.884;2023-06-14T14:17:50;9.13;;;8.43;;
74821;SDS011;63353;48.702;8.884;2023-06-14T14:20:16;9.52;;;8.90;;
74821;SDS011;63353;48.702;8.884;2023-06-14T14:22:42;11.50;;;8.45;;
74821;SDS011;63353;48.702;8.884;2023-06-14T14:25:08;9.20;;;8.50;;
74821;SDS011;63353;48.702;8.884;2023-06-14T14:27:34;9.57;;;8.82;;
74821;SDS011;63353;48.702;8.884;2023-06-14T14:30:00;9.65;;;9.02;;
74821;SDS011;63353;48.702;8.884;2023-06-14T14:32:26;10.85;;;10.05;;
74821;SDS011;63353;48.702;8.884;2023-06-14T14:34:51;10.52;;;9.75;;
74821;SDS011;63353;48.702;8.884;2023-06-14T14:37:17;10.57;;;9.98;;
74821;SDS011;63353;48.702;8.884;2023-06-14T14:39:44;10.15;;;9.35;;
74821;SDS011;63353;48.702;8.884;2023-06-14T14:42:10;11.45;;;10.80;;
74821;SDS011;63353;48.702;8.884;2023-06-14T14:44:37;11.32;;;10.63;;
74821;SDS011;63353;48.702;8.884;2023-06-14T14:47:03;11.73;;;11.02;;
74821;SDS011;63353;48.702;8.884;2023-06-14T14:49:30;13.63;;;12.60;;
74821;SDS011;63353;48.702;8.884;2023-06-14T14:51:56;11.95;;;11.23;;
74821;SDS011;63353;48.702;8.884;2023-06-14T14:54:22;11.00;;;10.30;;
74821;SDS011;63353;48.702;8.884;2023-06-14T14:56:48;12.15;;;11.45;;
74821;SDS011;63353;48.702;8.884;2023-06-14T14:59:14;13.10;;;11.80;;
74821;SDS011;63353;48.702;8.884;2023-06-14T15:01:39;12.75;;;12.07;;